Yellow Pine, ID (83677)

4:07 AM MDT on July 28, 2015 (GMT -0600)
MesoWest | | Change Station
CLOSE
Current Station
Personal Weather Station
Location: Yellow Pine, ID
Elevation: 6594 ft
Nearby Weather Stations

Elev 6594 ft 44.90 °N, 115.34 °W | Updated 22 minutes ago

Clear
Clear
33 °F
Feels Like 33 °F
N
1
Wind Variable Wind from WNW
Gusts 0.0 mph

Today
High -- | Low -- °F
--% Chance of Precip.
Yesterday
High -- | Low -- °F
Precip. -- in
6:22 AM 9:13 PM
Waxing Gibbous, 88% visible
Pressure 30.23 in
Visibility 10.0 miles
Clouds Clear
Windchill 33 °F
Dew Point 33 °F
Humidity 99%
Rainfall in
Snow Depth Not available.
UV 0 out of 12
Pollen 5.20 out of 12
Air Quality Not available.
Flu Activity Not available.
METAR KMYL 280951Z AUTO 00000KT 10SM CLR 04/01 A3026 RMK AO2 SLP235 T00390011

More Conditions Fewer Conditions

Pressure 30.23 in
Visibility 10.0 miles
Clouds Clear
Windchill 33 °F
Dew Point 33 °F
Humidity 99%
Rainfall in
Snow Depth Not available.
UV 0 out of 12
Pollen 5.20 out of 12
Air Quality Not available.
Flu Activity Not available.
METAR KMYL 280951Z AUTO 00000KT 10SM CLR 04/01 A3026 RMK AO2 SLP235 T00390011

More Conditions Fewer Conditions

10-Day Weather Forecast

×

Almanac

Astronomy

Jul. 28, 2015 Rise Set
Actual Time
Civil Twilight
Nautical Twilight
Astronomical Twilight
Moon
Length of Visible Light
Length of Day
Tomorrow will be .
, % of the Moon is Illuminated

Today's Extremes

State Highs State Lows

Community

WunderPhotos

Upload Photos

1,841,800 photos uploaded!

WunderBlogs® & News

Nearby

Air Quality

  Air Quality AQ Index Pollutant
Not available.

Snow Depth

Station Depth Elevation

Earthquake Activity

City Distance Mag. Time & Date
Minimum magnitude displayed is 2.5.

Coastal Water Temperatures

Place Temperature

Stations

Nearby Weather Stations

Station Location Temp. Windchill Dew Point Humidity Wind Precip. Elev Updated Type